Flom, Minnesota
Current Conditions -  °F | °C
As of 12:15 AM on Monday 26 Jan 2015 (Local Time) from K3N8 Reporting Station
Overcast Overcast  
Wind Chill: 10°   Ceiling: 2100
Heat Index: 25°   Visibility: 10mi
Dew Point: 20°   Wind: 21mph
Humidity: 84%   Direction: 190°S
Pressure: 29.7"   Gusts: 25mph
Location:  47.17°N, 96.13°W
Report Text: K3N8 260615Z AUTO 19018G22KT 10SM SCT010 BKN021 OVC060 M04/M06 A2970 RMK AO2 T10411065
Loading
Personal Weather Stations






























Interactive Weather Map New forecast layout! Learn more

10-Day Weather Forecast

Advertisements
Track Severe Weather on mobile